Terminal Aerodrome Forecast
Issued by NWS

Home | Current Version | Previous Version | Text Only | Print | Product List | Glossary On
Versions: 1 2 3 4 5 6 7 8 9 10 11 12 13
000
FTUS46 KLOX 222300
TAFPMD
TAF
KPMD 222339Z 2300/2324 24012KT P6SM SKC
     FM230600 20007KT P6SM SKC
     FM231500 VRB03KT P6SM SKC
     FM232100 25005KT P6SM SKC
     FM232300 23012KT P6SM SKC=

USA.gov is the U.S. government's official web portal to all federal, state and local government web resources and services.